LTFJ/SAW METAR and TAF weather

Enter ICAO airport designator
Station Type Date Time Source
LTFJ METAR 2019/10/23 13:50 UTC NOAA

LTFJ 231350Z 04015KT 9999 FEW030 19/13 Q1020 NOSIG


Station Type Date Time Source
LTFJ Decoded METAR 2019/10/23 13:50 UTC NOAA

Istanbul / Sabiha Gokcen, Turkey (LTFJ) 40-53-55N 029-18-33E
Oct 23, 2019 - 09:50 AM EDT / 2019.10.23 1350 UTC
Wind: from the NE (040 degrees) at 17 MPH (15 KT):0
Visibility: greater than 7 mile(s):0
Sky conditions: mostly clear
Temperature: 66 F (19 C)
Dew Point: 55 F (13 C)
Relative Humidity: 68%
Pressure (altimeter): 30.12 in. Hg (1020 hPa)
ob: LTFJ 231350Z 04015KT 9999 FEW030 19/13 Q1020 NOSIG
cycle: 14

Station Type Date Time Source
LTFJ TAF 2019/10/23 12:03 UTC NOAA

TAF LTFJ 231040Z 2312/2412 04015KT 9999 SCT030
BECMG 2312/2315 CAVOK
BECMG 2317/2320 04005KT
BECMG 2320/2323 SCT020 PROB40
TEMPO 2402/2406 4000 BR BKN012
BECMG 2407/2410 04015KT

Example: see airport list